sensor_id;sensor_type;location;lat;lon;timestamp;temperature;humidity
56240;DHT22;42154;51.992;5.896;2022-07-03T00:01:16;18.30;91.30
56240;DHT22;42154;51.992;5.896;2022-07-03T00:03:42;18.20;91.30
56240;DHT22;42154;51.992;5.896;2022-07-03T00:06:07;18.20;91.40
56240;DHT22;42154;51.992;5.896;2022-07-03T00:08:33;18.10;91.40
56240;DHT22;42154;51.992;5.896;2022-07-03T00:10:59;18.10;91.50
56240;DHT22;42154;51.992;5.896;2022-07-03T00:13:24;18.10;91.60
56240;DHT22;42154;51.992;5.896;2022-07-03T00:15:50;18.00;91.70
56240;DHT22;42154;51.992;5.896;2022-07-03T00:18:16;18.00;91.80
56240;DHT22;42154;51.992;5.896;2022-07-03T00:20:45;17.90;91.90
56240;DHT22;42154;51.992;5.896;2022-07-03T00:23:12;17.90;91.90
56240;DHT22;42154;51.992;5.896;2022-07-03T00:25:39;17.80;91.90
56240;DHT22;42154;51.992;5.896;2022-07-03T00:28:06;17.80;92.00
56240;DHT22;42154;51.992;5.896;2022-07-03T00:30:32;17.70;92.10
56240;DHT22;42154;51.992;5.896;2022-07-03T00:32:58;17.70;92.20
56240;DHT22;42154;51.992;5.896;2022-07-03T00:35:25;17.70;92.40
56240;DHT22;42154;51.992;5.896;2022-07-03T00:37:50;17.70;92.50
56240;DHT22;42154;51.992;5.896;2022-07-03T00:40:16;17.60;92.60
56240;DHT22;42154;51.992;5.896;2022-07-03T00:42:42;17.60;92.60
56240;DHT22;42154;51.992;5.896;2022-07-03T00:45:09;17.50;92.70
56240;DHT22;42154;51.992;5.896;2022-07-03T00:47:37;17.50;92.80
56240;DHT22;42154;51.992;5.896;2022-07-03T00:50:06;17.50;92.90
56240;DHT22;42154;51.992;5.896;2022-07-03T00:52:33;17.40;93.00
56240;DHT22;42154;51.992;5.896;2022-07-03T00:54:59;17.40;93.10
56240;DHT22;42154;51.992;5.896;2022-07-03T00:57:29;17.30;93.10
56240;DHT22;42154;51.992;5.896;2022-07-03T00:59:54;17.30;93.20
56240;DHT22;42154;51.992;5.896;2022-07-03T01:05:24;17.20;93.40
56240;DHT22;42154;51.992;5.896;2022-07-03T01:07:53;17.20;93.60
56240;DHT22;42154;51.992;5.896;2022-07-03T01:10:29;17.20;93.90
56240;DHT22;42154;51.992;5.896;2022-07-03T01:13:04;17.10;94.00
56240;DHT22;42154;51.992;5.896;2022-07-03T01:20:41;17.00;94.20
56240;DHT22;42154;51.992;5.896;2022-07-03T01:23:15;16.90;94.20
56240;DHT22;42154;51.992;5.896;2022-07-03T01:25:47;16.90;94.10
56240;DHT22;42154;51.992;5.896;2022-07-03T01:28:15;16.80;94.10
56240;DHT22;42154;51.992;5.896;2022-07-03T01:33:17;16.80;94.20
56240;DHT22;42154;51.992;5.896;2022-07-03T01:38:30;16.70;94.80
56240;DHT22;42154;51.992;5.896;2022-07-03T01:40:56;16.70;94.70
56240;DHT22;42154;51.992;5.896;2022-07-03T01:43:25;16.70;94.60
56240;DHT22;42154;51.992;5.896;2022-07-03T01:45:52;16.70;94.50
56240;DHT22;42154;51.992;5.896;2022-07-03T01:48:18;16.70;94.60
56240;DHT22;42154;51.992;5.896;2022-07-03T01:50:44;16.70;94.60
56240;DHT22;42154;51.992;5.896;2022-07-03T01:53:11;16.70;94.70
56240;DHT22;42154;51.992;5.896;2022-07-03T01:55:39;16.70;94.70
56240;DHT22;42154;51.992;5.896;2022-07-03T01:58:05;16.70;94.90
56240;DHT22;42154;51.992;5.896;2022-07-03T02:00:31;16.70;94.90
56240;DHT22;42154;51.992;5.896;2022-07-03T02:03:03;16.70;94.80
56240;DHT22;42154;51.992;5.896;2022-07-03T02:05:29;16.70;94.90
56240;DHT22;42154;51.992;5.896;2022-07-03T02:08:15;16.70;94.80
56240;DHT22;42154;51.992;5.896;2022-07-03T02:10:46;16.70;94.90
56240;DHT22;42154;51.992;5.896;2022-07-03T02:13:16;16.70;94.90
56240;DHT22;42154;51.992;5.896;2022-07-03T02:15:42;16.70;95.00
56240;DHT22;42154;51.992;5.896;2022-07-03T02:20:35;16.60;94.90
56240;DHT22;42154;51.992;5.896;2022-07-03T02:23:02;16.70;94.90
56240;DHT22;42154;51.992;5.896;2022-07-03T02:25:41;16.60;95.00
56240;DHT22;42154;51.992;5.896;2022-07-03T02:28:13;16.60;95.00
56240;DHT22;42154;51.992;5.896;2022-07-03T02:30:41;16.60;95.00
56240;DHT22;42154;51.992;5.896;2022-07-03T02:33:07;16.50;95.10
56240;DHT22;42154;51.992;5.896;2022-07-03T02:35:36;16.50;95.20
56240;DHT22;42154;51.992;5.896;2022-07-03T02:38:09;16.50;95.10
56240;DHT22;42154;51.992;5.896;2022-07-03T02:40:37;16.40;95.20
56240;DHT22;42154;51.992;5.896;2022-07-03T02:43:13;16.40;95.30
56240;DHT22;42154;51.992;5.896;2022-07-03T02:45:50;16.40;95.30
56240;DHT22;42154;51.992;5.896;2022-07-03T02:48:31;16.40;95.40
56240;DHT22;42154;51.992;5.896;2022-07-03T02:51:02;16.30;95.50
56240;DHT22;42154;51.992;5.896;2022-07-03T02:53:37;16.30;95.50
56240;DHT22;42154;51.992;5.896;2022-07-03T02:56:19;16.20;95.60
56240;DHT22;42154;51.992;5.896;2022-07-03T02:58:57;16.20;95.70
56240;DHT22;42154;51.992;5.896;2022-07-03T03:01:27;16.10;95.80
56240;DHT22;42154;51.992;5.896;2022-07-03T03:04:07;16.10;95.90
56240;DHT22;42154;51.992;5.896;2022-07-03T03:06:35;16.00;95.90
56240;DHT22;42154;51.992;5.896;2022-07-03T03:09:02;16.00;95.90
56240;DHT22;42154;51.992;5.896;2022-07-03T03:11:32;16.00;96.20
56240;DHT22;42154;51.992;5.896;2022-07-03T03:13:58;16.00;95.90
56240;DHT22;42154;51.992;5.896;2022-07-03T03:16:25;15.90;96.00
56240;DHT22;42154;51.992;5.896;2022-07-03T03:18:51;15.90;96.10
56240;DHT22;42154;51.992;5.896;2022-07-03T03:21:17;15.90;96.20
56240;DHT22;42154;51.992;5.896;2022-07-03T03:26:09;15.80;96.30
56240;DHT22;42154;51.992;5.896;2022-07-03T03:28:36;15.80;96.40
56240;DHT22;42154;51.992;5.896;2022-07-03T03:31:01;15.80;96.40
56240;DHT22;42154;51.992;5.896;2022-07-03T03:33:29;15.80;96.40
56240;DHT22;42154;51.992;5.896;2022-07-03T03:35:55;15.80;96.40
56240;DHT22;42154;51.992;5.896;2022-07-03T03:38:21;15.80;96.60
56240;DHT22;42154;51.992;5.896;2022-07-03T03:40:47;15.80;96.60
56240;DHT22;42154;51.992;5.896;2022-07-03T03:43:13;15.80;96.60
56240;DHT22;42154;51.992;5.896;2022-07-03T03:45:38;15.80;96.60
56240;DHT22;42154;51.992;5.896;2022-07-03T03:48:04;15.80;96.70
56240;DHT22;42154;51.992;5.896;2022-07-03T03:50:30;15.80;96.70
56240;DHT22;42154;51.992;5.896;2022-07-03T03:52:55;15.80;96.70
56240;DHT22;42154;51.992;5.896;2022-07-03T03:55:21;15.90;96.70
56240;DHT22;42154;51.992;5.896;2022-07-03T03:57:47;16.00;96.80
56240;DHT22;42154;51.992;5.896;2022-07-03T04:00:12;16.40;96.80
56240;DHT22;42154;51.992;5.896;2022-07-03T04:02:38;17.10;96.20
56240;DHT22;42154;51.992;5.896;2022-07-03T04:05:04;18.00;95.00
56240;DHT22;42154;51.992;5.896;2022-07-03T04:07:30;19.00;93.60
56240;DHT22;42154;51.992;5.896;2022-07-03T04:09:56;20.00;92.10
56240;DHT22;42154;51.992;5.896;2022-07-03T04:12:21;20.80;90.80
56240;DHT22;42154;51.992;5.896;2022-07-03T04:14:47;21.60;88.90
56240;DHT22;42154;51.992;5.896;2022-07-03T04:17:12;22.40;86.30
56240;DHT22;42154;51.992;5.896;2022-07-03T04:19:38;23.00;84.00
56240;DHT22;42154;51.992;5.896;2022-07-03T04:22:04;23.50;81.70
56240;DHT22;42154;51.992;5.896;2022-07-03T04:24:35;23.90;80.00
56240;DHT22;42154;51.992;5.896;2022-07-03T04:27:00;23.90;79.10
56240;DHT22;42154;51.992;5.896;2022-07-03T04:29:26;23.50;78.80
56240;DHT22;42154;51.992;5.896;2022-07-03T04:31:51;22.70;80.40
56240;DHT22;42154;51.992;5.896;2022-07-03T04:34:17;21.70;83.10
56240;DHT22;42154;51.992;5.896;2022-07-03T04:36:43;20.80;85.70
56240;DHT22;42154;51.992;5.896;2022-07-03T04:39:08;20.10;88.00
56240;DHT22;42154;51.992;5.896;2022-07-03T04:41:34;19.60;89.90
56240;DHT22;42154;51.992;5.896;2022-07-03T04:43:59;19.10;90.70
56240;DHT22;42154;51.992;5.896;2022-07-03T04:46:25;18.70;91.30
56240;DHT22;42154;51.992;5.896;2022-07-03T04:48:51;18.30;92.10
56240;DHT22;42154;51.992;5.896;2022-07-03T04:51:16;18.00;92.70
56240;DHT22;42154;51.992;5.896;2022-07-03T04:53:42;18.00;93.20
56240;DHT22;42154;51.992;5.896;2022-07-03T04:56:07;18.00;93.10
56240;DHT22;42154;51.992;5.896;2022-07-03T04:58:33;18.30;93.30
56240;DHT22;42154;51.992;5.896;2022-07-03T05:00:59;19.10;92.40
56240;DHT22;42154;51.992;5.896;2022-07-03T05:03:24;20.10;91.10
56240;DHT22;42154;51.992;5.896;2022-07-03T05:05:50;20.40;90.70
56240;DHT22;42154;51.992;5.896;2022-07-03T05:08:17;20.40;90.90
56240;DHT22;42154;51.992;5.896;2022-07-03T05:10:45;20.30;90.80
56240;DHT22;42154;51.992;5.896;2022-07-03T05:13:11;20.20;90.50
56240;DHT22;42154;51.992;5.896;2022-07-03T05:15:36;20.30;90.30
56240;DHT22;42154;51.992;5.896;2022-07-03T05:18:02;20.40;89.50
56240;DHT22;42154;51.992;5.896;2022-07-03T05:20:28;20.50;89.30
56240;DHT22;42154;51.992;5.896;2022-07-03T05:22:54;20.50;89.20
56240;DHT22;42154;51.992;5.896;2022-07-03T05:25:20;20.50;88.60
56240;DHT22;42154;51.992;5.896;2022-07-03T05:27:45;20.40;88.80
56240;DHT22;42154;51.992;5.896;2022-07-03T05:30:11;20.40;88.40
56240;DHT22;42154;51.992;5.896;2022-07-03T05:32:37;20.20;88.60
56240;DHT22;42154;51.992;5.896;2022-07-03T05:35:03;20.00;89.10
56240;DHT22;42154;51.992;5.896;2022-07-03T05:37:29;20.00;89.50
56240;DHT22;42154;51.992;5.896;2022-07-03T05:39:54;20.00;89.50
56240;DHT22;42154;51.992;5.896;2022-07-03T05:42:20;20.10;89.10
56240;DHT22;42154;51.992;5.896;2022-07-03T05:44:45;20.20;88.70
56240;DHT22;42154;51.992;5.896;2022-07-03T05:47:11;20.10;88.60
56240;DHT22;42154;51.992;5.896;2022-07-03T05:49:37;20.00;88.90
56240;DHT22;42154;51.992;5.896;2022-07-03T05:52:02;19.90;89.20
56240;DHT22;42154;51.992;5.896;2022-07-03T05:54:28;19.90;89.60
56240;DHT22;42154;51.992;5.896;2022-07-03T05:56:54;19.80;90.00
56240;DHT22;42154;51.992;5.896;2022-07-03T05:59:19;19.80;90.20
56240;DHT22;42154;51.992;5.896;2022-07-03T06:01:45;19.90;90.40
56240;DHT22;42154;51.992;5.896;2022-07-03T06:04:10;19.90;90.50
56240;DHT22;42154;51.992;5.896;2022-07-03T06:06:36;19.90;90.60
56240;DHT22;42154;51.992;5.896;2022-07-03T06:09:02;20.00;90.70
56240;DHT22;42154;51.992;5.896;2022-07-03T06:11:27;20.10;90.90
56240;DHT22;42154;51.992;5.896;2022-07-03T06:13:53;20.10;90.70
56240;DHT22;42154;51.992;5.896;2022-07-03T06:16:19;20.20;90.90
56240;DHT22;42154;51.992;5.896;2022-07-03T06:18:44;20.30;90.40
56240;DHT22;42154;51.992;5.896;2022-07-03T06:21:10;20.30;90.20
56240;DHT22;42154;51.992;5.896;2022-07-03T06:23:35;20.40;89.70
56240;DHT22;42154;51.992;5.896;2022-07-03T06:26:01;20.50;89.50
56240;DHT22;42154;51.992;5.896;2022-07-03T06:28:27;20.60;89.10
56240;DHT22;42154;51.992;5.896;2022-07-03T06:30:52;20.60;88.10
56240;DHT22;42154;51.992;5.896;2022-07-03T06:33:18;20.50;88.30
56240;DHT22;42154;51.992;5.896;2022-07-03T06:35:44;20.40;88.60
56240;DHT22;42154;51.992;5.896;2022-07-03T06:38:09;20.40;89.10
56240;DHT22;42154;51.992;5.896;2022-07-03T06:40:35;20.40;89.20
56240;DHT22;42154;51.992;5.896;2022-07-03T06:43:01;20.50;89.50
56240;DHT22;42154;51.992;5.896;2022-07-03T06:45:26;20.50;89.30
56240;DHT22;42154;51.992;5.896;2022-07-03T06:47:52;20.60;89.30
56240;DHT22;42154;51.992;5.896;2022-07-03T06:50:17;20.60;88.80
56240;DHT22;42154;51.992;5.896;2022-07-03T06:52:43;20.60;88.80
56240;DHT22;42154;51.992;5.896;2022-07-03T06:55:09;20.60;88.90
56240;DHT22;42154;51.992;5.896;2022-07-03T06:57:34;20.70;88.80
56240;DHT22;42154;51.992;5.896;2022-07-03T07:00:00;20.70;88.70
56240;DHT22;42154;51.992;5.896;2022-07-03T07:02:26;20.80;88.80
56240;DHT22;42154;51.992;5.896;2022-07-03T07:04:51;20.80;88.70
56240;DHT22;42154;51.992;5.896;2022-07-03T07:07:17;20.90;88.70
56240;DHT22;42154;51.992;5.896;2022-07-03T07:09:42;20.90;87.10
56240;DHT22;42154;51.992;5.896;2022-07-03T07:12:08;20.90;87.20
56240;DHT22;42154;51.992;5.896;2022-07-03T07:14:34;21.00;87.20
56240;DHT22;42154;51.992;5.896;2022-07-03T07:17:00;21.10;87.10
56240;DHT22;42154;51.992;5.896;2022-07-03T07:19:25;21.00;86.60
56240;DHT22;42154;51.992;5.896;2022-07-03T07:21:51;21.10;85.90
56240;DHT22;42154;51.992;5.896;2022-07-03T07:24:16;21.10;86.40
56240;DHT22;42154;51.992;5.896;2022-07-03T07:26:42;21.10;86.30
56240;DHT22;42154;51.992;5.896;2022-07-03T07:29:07;21.20;86.70
56240;DHT22;42154;51.992;5.896;2022-07-03T07:31:33;21.20;86.60
56240;DHT22;42154;51.992;5.896;2022-07-03T07:33:59;21.20;86.70
56240;DHT22;42154;51.992;5.896;2022-07-03T07:36:24;21.40;86.60
56240;DHT22;42154;51.992;5.896;2022-07-03T07:38:50;21.40;86.40
56240;DHT22;42154;51.992;5.896;2022-07-03T07:41:16;21.50;86.30
56240;DHT22;42154;51.992;5.896;2022-07-03T07:43:41;21.50;86.20
56240;DHT22;42154;51.992;5.896;2022-07-03T07:46:07;21.50;86.40
56240;DHT22;42154;51.992;5.896;2022-07-03T07:48:35;21.60;86.90
56240;DHT22;42154;51.992;5.896;2022-07-03T07:51:01;21.60;86.90
56240;DHT22;42154;51.992;5.896;2022-07-03T07:53:27;21.70;86.50
56240;DHT22;42154;51.992;5.896;2022-07-03T07:55:52;21.70;85.90
56240;DHT22;42154;51.992;5.896;2022-07-03T07:58:18;21.90;86.20
56240;DHT22;42154;51.992;5.896;2022-07-03T08:00:44;22.00;86.20
56240;DHT22;42154;51.992;5.896;2022-07-03T08:03:29;22.10;86.00
56240;DHT22;42154;51.992;5.896;2022-07-03T08:06:14;22.20;85.50
56240;DHT22;42154;51.992;5.896;2022-07-03T08:08:39;22.20;84.60
56240;DHT22;42154;51.992;5.896;2022-07-03T08:11:05;22.20;83.50
56240;DHT22;42154;51.992;5.896;2022-07-03T08:13:30;22.20;82.80
56240;DHT22;42154;51.992;5.896;2022-07-03T08:15:56;22.20;82.20
56240;DHT22;42154;51.992;5.896;2022-07-03T08:18:22;22.20;82.20
56240;DHT22;42154;51.992;5.896;2022-07-03T08:20:48;22.20;81.60
56240;DHT22;42154;51.992;5.896;2022-07-03T08:23:14;22.20;81.90
56240;DHT22;42154;51.992;5.896;2022-07-03T08:25:39;22.20;81.30
56240;DHT22;42154;51.992;5.896;2022-07-03T08:28:05;22.30;81.50
56240;DHT22;42154;51.992;5.896;2022-07-03T08:30:31;22.30;82.10
56240;DHT22;42154;51.992;5.896;2022-07-03T08:32:57;22.30;82.20
56240;DHT22;42154;51.992;5.896;2022-07-03T08:35:23;22.30;82.70
56240;DHT22;42154;51.992;5.896;2022-07-03T08:37:49;22.40;83.00
56240;DHT22;42154;51.992;5.896;2022-07-03T08:40:15;22.50;82.50
56240;DHT22;42154;51.992;5.896;2022-07-03T08:42:45;22.60;82.00
56240;DHT22;42154;51.992;5.896;2022-07-03T08:45:15;22.60;82.10
56240;DHT22;42154;51.992;5.896;2022-07-03T08:47:44;22.60;82.70
56240;DHT22;42154;51.992;5.896;2022-07-03T08:50:14;22.70;83.40
56240;DHT22;42154;51.992;5.896;2022-07-03T08:52:40;22.80;82.80
56240;DHT22;42154;51.992;5.896;2022-07-03T08:55:06;22.80;82.10
56240;DHT22;42154;51.992;5.896;2022-07-03T08:57:32;22.80;82.10
56240;DHT22;42154;51.992;5.896;2022-07-03T08:59:58;22.90;82.20
56240;DHT22;42154;51.992;5.896;2022-07-03T09:02:26;22.90;81.60
56240;DHT22;42154;51.992;5.896;2022-07-03T09:04:51;23.00;81.50
56240;DHT22;42154;51.992;5.896;2022-07-03T09:07:17;23.10;81.20
56240;DHT22;42154;51.992;5.896;2022-07-03T09:09:44;23.20;80.60
56240;DHT22;42154;51.992;5.896;2022-07-03T09:12:10;23.20;80.20
56240;DHT22;42154;51.992;5.896;2022-07-03T09:14:36;23.30;79.30
56240;DHT22;42154;51.992;5.896;2022-07-03T09:17:02;23.30;78.00
56240;DHT22;42154;51.992;5.896;2022-07-03T09:22:28;23.40;78.00
56240;DHT22;42154;51.992;5.896;2022-07-03T09:24:53;23.50;77.80
56240;DHT22;42154;51.992;5.896;2022-07-03T09:27:20;23.70;77.30
56240;DHT22;42154;51.992;5.896;2022-07-03T09:29:59;23.70;77.00
56240;DHT22;42154;51.992;5.896;2022-07-03T09:32:26;23.70;77.30
56240;DHT22;42154;51.992;5.896;2022-07-03T09:37:36;23.80;77.60
56240;DHT22;42154;51.992;5.896;2022-07-03T09:40:02;23.90;77.40
56240;DHT22;42154;51.992;5.896;2022-07-03T09:42:28;23.90;77.80
56240;DHT22;42154;51.992;5.896;2022-07-03T09:44:54;24.10;78.40
56240;DHT22;42154;51.992;5.896;2022-07-03T09:47:20;24.20;77.90
56240;DHT22;42154;51.992;5.896;2022-07-03T09:49:48;24.40;77.60
56240;DHT22;42154;51.992;5.896;2022-07-03T09:52:33;24.50;76.90
56240;DHT22;42154;51.992;5.896;2022-07-03T09:55:00;24.50;77.10
56240;DHT22;42154;51.992;5.896;2022-07-03T09:57:29;24.60;77.50
56240;DHT22;42154;51.992;5.896;2022-07-03T10:00:37;24.50;77.40
56240;DHT22;42154;51.992;5.896;2022-07-03T10:07:57;24.50;77.50
56240;DHT22;42154;51.992;5.896;2022-07-03T10:10:24;24.50;77.20
56240;DHT22;42154;51.992;5.896;2022-07-03T10:12:50;24.50;77.20
56240;DHT22;42154;51.992;5.896;2022-07-03T10:15:16;24.50;77.70
56240;DHT22;42154;51.992;5.896;2022-07-03T10:17:42;24.40;77.90
56240;DHT22;42154;51.992;5.896;2022-07-03T10:20:10;24.50;77.40
56240;DHT22;42154;51.992;5.896;2022-07-03T10:22:38;24.50;76.60
56240;DHT22;42154;51.992;5.896;2022-07-03T10:25:06;24.50;76.80
56240;DHT22;42154;51.992;5.896;2022-07-03T10:27:33;24.50;77.00
56240;DHT22;42154;51.992;5.896;2022-07-03T10:29:59;24.60;76.90
56240;DHT22;42154;51.992;5.896;2022-07-03T10:32:26;24.60;77.00
56240;DHT22;42154;51.992;5.896;2022-07-03T10:34:52;24.70;76.90
56240;DHT22;42154;51.992;5.896;2022-07-03T10:37:18;24.70;74.90
56240;DHT22;42154;51.992;5.896;2022-07-03T10:42:47;24.60;75.60
56240;DHT22;42154;51.992;5.896;2022-07-03T10:45:32;24.80;76.30
56240;DHT22;42154;51.992;5.896;2022-07-03T10:47:57;24.80;75.60
56240;DHT22;42154;51.992;5.896;2022-07-03T10:50:23;24.80;75.80
56240;DHT22;42154;51.992;5.896;2022-07-03T10:52:49;24.70;76.00
56240;DHT22;42154;51.992;5.896;2022-07-03T10:55:16;24.60;76.20
56240;DHT22;42154;51.992;5.896;2022-07-03T10:57:42;24.60;75.60
56240;DHT22;42154;51.992;5.896;2022-07-03T11:00:18;24.70;76.20
56240;DHT22;42154;51.992;5.896;2022-07-03T11:05:10;24.70;74.70
56240;DHT22;42154;51.992;5.896;2022-07-03T11:13:12;24.80;74.60
56240;DHT22;42154;51.992;5.896;2022-07-03T11:15:45;25.00;74.40
56240;DHT22;42154;51.992;5.896;2022-07-03T11:23:04;25.20;73.40
56240;DHT22;42154;51.992;5.896;2022-07-03T11:28:07;25.30;71.30
56240;DHT22;42154;51.992;5.896;2022-07-03T11:30:33;25.20;70.70
56240;DHT22;42154;51.992;5.896;2022-07-03T11:32:59;24.90;70.90
56240;DHT22;42154;51.992;5.896;2022-07-03T11:40:45;24.90;72.70
56240;DHT22;42154;51.992;5.896;2022-07-03T11:43:12;24.90;73.20
56240;DHT22;42154;51.992;5.896;2022-07-03T11:45:38;24.90;73.50
56240;DHT22;42154;51.992;5.896;2022-07-03T11:48:12;24.90;73.80
56240;DHT22;42154;51.992;5.896;2022-07-03T11:50:39;24.90;73.00
56240;DHT22;42154;51.992;5.896;2022-07-03T11:55:46;25.10;71.30
56240;DHT22;42154;51.992;5.896;2022-07-03T11:58:12;25.10;69.80
56240;DHT22;42154;51.992;5.896;2022-07-03T12:00:37;25.20;67.50
56240;DHT22;42154;51.992;5.896;2022-07-03T12:03:03;25.20;67.80
56240;DHT22;42154;51.992;5.896;2022-07-03T12:05:29;25.30;68.20
56240;DHT22;42154;51.992;5.896;2022-07-03T12:08:04;25.40;68.00
56240;DHT22;42154;51.992;5.896;2022-07-03T12:10:39;25.40;68.20
56240;DHT22;42154;51.992;5.896;2022-07-03T12:13:18;25.50;68.60
56240;DHT22;42154;51.992;5.896;2022-07-03T12:15:43;25.50;67.50
56240;DHT22;42154;51.992;5.896;2022-07-03T12:18:09;25.50;67.10
56240;DHT22;42154;51.992;5.896;2022-07-03T12:20:34;25.50;67.00
56240;DHT22;42154;51.992;5.896;2022-07-03T12:23:00;25.60;66.60
56240;DHT22;42154;51.992;5.896;2022-07-03T12:25:28;25.50;65.60
56240;DHT22;42154;51.992;5.896;2022-07-03T12:27:54;25.40;66.30
56240;DHT22;42154;51.992;5.896;2022-07-03T12:30:21;25.40;66.20
56240;DHT22;42154;51.992;5.896;2022-07-03T12:32:52;25.40;66.00
56240;DHT22;42154;51.992;5.896;2022-07-03T12:35:22;25.40;65.30
56240;DHT22;42154;51.992;5.896;2022-07-03T12:37:48;25.40;65.50
56240;DHT22;42154;51.992;5.896;2022-07-03T12:40:14;25.40;65.30
56240;DHT22;42154;51.992;5.896;2022-07-03T12:42:42;25.50;65.80
56240;DHT22;42154;51.992;5.896;2022-07-03T12:45:10;25.60;66.10
56240;DHT22;42154;51.992;5.896;2022-07-03T12:47:36;25.60;66.20
56240;DHT22;42154;51.992;5.896;2022-07-03T12:50:05;25.60;66.30
56240;DHT22;42154;51.992;5.896;2022-07-03T12:52:32;25.70;66.20
56240;DHT22;42154;51.992;5.896;2022-07-03T12:55:00;25.70;66.00
56240;DHT22;42154;51.992;5.896;2022-07-03T12:57:26;25.70;65.70
56240;DHT22;42154;51.992;5.896;2022-07-03T13:00:14;25.70;65.90
56240;DHT22;42154;51.992;5.896;2022-07-03T13:02:45;25.70;64.00
56240;DHT22;42154;51.992;5.896;2022-07-03T13:05:15;25.50;64.30
56240;DHT22;42154;51.992;5.896;2022-07-03T13:07:41;25.40;65.70
56240;DHT22;42154;51.992;5.896;2022-07-03T13:10:07;25.50;65.10
56240;DHT22;42154;51.992;5.896;2022-07-03T13:12:33;25.40;65.00
56240;DHT22;42154;51.992;5.896;2022-07-03T13:14:59;25.40;66.20
56240;DHT22;42154;51.992;5.896;2022-07-03T13:20:09;25.60;65.10
56240;DHT22;42154;51.992;5.896;2022-07-03T13:22:35;25.50;65.10
56240;DHT22;42154;51.992;5.896;2022-07-03T13:25:00;25.40;65.40
56240;DHT22;42154;51.992;5.896;2022-07-03T13:27:26;25.30;64.20
56240;DHT22;42154;51.992;5.896;2022-07-03T13:29:52;25.30;64.90
56240;DHT22;42154;51.992;5.896;2022-07-03T13:32:17;25.10;65.40
56240;DHT22;42154;51.992;5.896;2022-07-03T13:34:43;25.10;65.80
56240;DHT22;42154;51.992;5.896;2022-07-03T13:37:08;25.10;66.30
56240;DHT22;42154;51.992;5.896;2022-07-03T13:39:34;25.00;66.30
56240;DHT22;42154;51.992;5.896;2022-07-03T13:42:00;24.90;66.20
56240;DHT22;42154;51.992;5.896;2022-07-03T13:44:25;24.90;66.20
56240;DHT22;42154;51.992;5.896;2022-07-03T13:46:51;25.10;65.70
56240;DHT22;42154;51.992;5.896;2022-07-03T13:49:16;25.40;66.00
56240;DHT22;42154;51.992;5.896;2022-07-03T13:51:43;25.70;65.00
56240;DHT22;42154;51.992;5.896;2022-07-03T13:54:08;25.90;64.00
56240;DHT22;42154;51.992;5.896;2022-07-03T13:56:34;25.90;61.80
56240;DHT22;42154;51.992;5.896;2022-07-03T13:58:59;25.80;61.30
56240;DHT22;42154;51.992;5.896;2022-07-03T14:01:25;25.60;61.30
56240;DHT22;42154;51.992;5.896;2022-07-03T14:03:51;25.20;61.30
56240;DHT22;42154;51.992;5.896;2022-07-03T14:06:16;25.00;62.70
56240;DHT22;42154;51.992;5.896;2022-07-03T14:08:42;24.90;63.40
56240;DHT22;42154;51.992;5.896;2022-07-03T14:11:08;25.10;64.40
56240;DHT22;42154;51.992;5.896;2022-07-03T14:13:33;25.30;64.20
56240;DHT22;42154;51.992;5.896;2022-07-03T14:15:59;25.40;63.00
56240;DHT22;42154;51.992;5.896;2022-07-03T14:18:25;25.40;62.10
56240;DHT22;42154;51.992;5.896;2022-07-03T14:20:51;25.50;62.20
56240;DHT22;42154;51.992;5.896;2022-07-03T14:23:16;25.60;61.80
56240;DHT22;42154;51.992;5.896;2022-07-03T14:25:42;25.60;60.90
56240;DHT22;42154;51.992;5.896;2022-07-03T14:28:07;25.60;62.40
56240;DHT22;42154;51.992;5.896;2022-07-03T14:30:52;25.70;63.50
56240;DHT22;42154;51.992;5.896;2022-07-03T14:33:36;25.70;63.60
56240;DHT22;42154;51.992;5.896;2022-07-03T14:36:02;25.60;63.90
56240;DHT22;42154;51.992;5.896;2022-07-03T14:38:27;25.60;64.10
56240;DHT22;42154;51.992;5.896;2022-07-03T14:40:53;25.50;64.70
56240;DHT22;42154;51.992;5.896;2022-07-03T14:43:18;25.50;65.90
56240;DHT22;42154;51.992;5.896;2022-07-03T14:45:44;25.60;65.70
56240;DHT22;42154;51.992;5.896;2022-07-03T14:48:10;25.60;65.00
56240;DHT22;42154;51.992;5.896;2022-07-03T14:50:35;25.60;64.80
56240;DHT22;42154;51.992;5.896;2022-07-03T14:53:02;25.60;64.20
56240;DHT22;42154;51.992;5.896;2022-07-03T14:55:32;25.40;63.80
56240;DHT22;42154;51.992;5.896;2022-07-03T14:58:04;25.20;65.10
56240;DHT22;42154;51.992;5.896;2022-07-03T15:00:32;25.20;66.30
56240;DHT22;42154;51.992;5.896;2022-07-03T15:05:27;25.30;66.70
56240;DHT22;42154;51.992;5.896;2022-07-03T15:10:22;25.20;65.70
56240;DHT22;42154;51.992;5.896;2022-07-03T15:12:51;25.00;66.30
56240;DHT22;42154;51.992;5.896;2022-07-03T15:15:18;24.90;66.30
56240;DHT22;42154;51.992;5.896;2022-07-03T15:17:44;24.90;66.80
56240;DHT22;42154;51.992;5.896;2022-07-03T15:20:11;24.80;66.50
56240;DHT22;42154;51.992;5.896;2022-07-03T15:22:38;24.80;66.60
56240;DHT22;42154;51.992;5.896;2022-07-03T15:25:06;24.80;66.20
56240;DHT22;42154;51.992;5.896;2022-07-03T15:27:32;24.70;66.40
56240;DHT22;42154;51.992;5.896;2022-07-03T15:29:57;24.60;67.10
56240;DHT22;42154;51.992;5.896;2022-07-03T15:32:23;24.50;66.00
56240;DHT22;42154;51.992;5.896;2022-07-03T15:34:50;24.40;66.10
56240;DHT22;42154;51.992;5.896;2022-07-03T15:40:02;24.60;65.00
56240;DHT22;42154;51.992;5.896;2022-07-03T15:42:47;24.70;65.40
56240;DHT22;42154;51.992;5.896;2022-07-03T15:45:29;24.70;65.00
56240;DHT22;42154;51.992;5.896;2022-07-03T15:48:00;24.80;64.60
56240;DHT22;42154;51.992;5.896;2022-07-03T15:50:49;24.80;64.70
56240;DHT22;42154;51.992;5.896;2022-07-03T15:53:19;24.80;64.10
56240;DHT22;42154;51.992;5.896;2022-07-03T15:55:45;24.80;64.20
56240;DHT22;42154;51.992;5.896;2022-07-03T15:58:12;24.80;64.50
56240;DHT22;42154;51.992;5.896;2022-07-03T16:00:39;24.70;63.90
56240;DHT22;42154;51.992;5.896;2022-07-03T16:05:46;24.80;64.20
56240;DHT22;42154;51.992;5.896;2022-07-03T16:08:12;24.70;64.50
56240;DHT22;42154;51.992;5.896;2022-07-03T16:10:39;24.70;63.70
56240;DHT22;42154;51.992;5.896;2022-07-03T16:13:04;24.70;63.90
56240;DHT22;42154;51.992;5.896;2022-07-03T16:15:40;24.60;63.40
56240;DHT22;42154;51.992;5.896;2022-07-03T16:18:06;24.50;63.50
56240;DHT22;42154;51.992;5.896;2022-07-03T16:20:32;24.50;64.00
56240;DHT22;42154;51.992;5.896;2022-07-03T16:23:08;24.60;64.00
56240;DHT22;42154;51.992;5.896;2022-07-03T16:25:34;24.50;63.40
56240;DHT22;42154;51.992;5.896;2022-07-03T16:28:00;24.40;64.10
56240;DHT22;42154;51.992;5.896;2022-07-03T16:30:26;24.40;64.00
56240;DHT22;42154;51.992;5.896;2022-07-03T16:32:52;24.40;62.80
56240;DHT22;42154;51.992;5.896;2022-07-03T16:37:47;24.50;62.60
56240;DHT22;42154;51.992;5.896;2022-07-03T16:40:16;24.60;63.00
56240;DHT22;42154;51.992;5.896;2022-07-03T16:42:43;24.70;62.50